sensor_id;sensor_type;location;lat;lon;timestamp;P1;durP1;ratioP1;P2;durP2;ratioP2
75943;SDS011;64627;46.076;18.238;2022-10-31T00:00:44;98.93;;;26.73;;
75943;SDS011;64627;46.076;18.238;2022-10-31T00:03:29;79.15;;;25.02;;
75943;SDS011;64627;46.076;18.238;2022-10-31T00:06:13;88.85;;;25.42;;
75943;SDS011;64627;46.076;18.238;2022-10-31T00:08:59;107.90;;;27.10;;
75943;SDS011;64627;46.076;18.238;2022-10-31T00:11:44;103.50;;;26.08;;
75943;SDS011;64627;46.076;18.238;2022-10-31T00:14:28;120.70;;;26.20;;
75943;SDS011;64627;46.076;18.238;2022-10-31T00:17:12;88.65;;;25.75;;
75943;SDS011;64627;46.076;18.238;2022-10-31T00:19:56;80.12;;;27.25;;
75943;SDS011;64627;46.076;18.238;2022-10-31T00:22:40;115.37;;;26.20;;
75943;SDS011;64627;46.076;18.238;2022-10-31T00:25:25;89.97;;;24.60;;
75943;SDS011;64627;46.076;18.238;2022-10-31T00:28:10;122.60;;;25.48;;
75943;SDS011;64627;46.076;18.238;2022-10-31T00:30:59;105.25;;;24.73;;
75943;SDS011;64627;46.076;18.238;2022-10-31T00:33:44;106.70;;;27.23;;
75943;SDS011;64627;46.076;18.238;2022-10-31T00:36:28;108.70;;;26.37;;
75943;SDS011;64627;46.076;18.238;2022-10-31T00:39:13;102.43;;;27.25;;
75943;SDS011;64627;46.076;18.238;2022-10-31T00:41:57;167.23;;;28.70;;
75943;SDS011;64627;46.076;18.238;2022-10-31T00:44:41;160.90;;;28.12;;
75943;SDS011;64627;46.076;18.238;2022-10-31T00:47:25;145.85;;;30.20;;
75943;SDS011;64627;46.076;18.238;2022-10-31T00:50:09;152.82;;;31.37;;
75943;SDS011;64627;46.076;18.238;2022-10-31T00:52:53;158.32;;;31.08;;
75943;SDS011;64627;46.076;18.238;2022-10-31T00:55:37;159.82;;;29.30;;
75943;SDS011;64627;46.076;18.238;2022-10-31T00:58:21;160.60;;;28.42;;
75943;SDS011;64627;46.076;18.238;2022-10-31T01:01:06;111.28;;;27.15;;
75943;SDS011;64627;46.076;18.238;2022-10-31T01:03:50;128.27;;;28.60;;
75943;SDS011;64627;46.076;18.238;2022-10-31T01:06:34;125.32;;;28.55;;
75943;SDS011;64627;46.076;18.238;2022-10-31T01:09:18;120.50;;;27.62;;
75943;SDS011;64627;46.076;18.238;2022-10-31T01:12:02;124.95;;;27.90;;
75943;SDS011;64627;46.076;18.238;2022-10-31T01:14:47;133.57;;;27.98;;
75943;SDS011;64627;46.076;18.238;2022-10-31T01:17:34;130.68;;;26.58;;
75943;SDS011;64627;46.076;18.238;2022-10-31T01:20:18;198.45;;;27.27;;
75943;SDS011;64627;46.076;18.238;2022-10-31T01:23:03;127.32;;;26.48;;
75943;SDS011;64627;46.076;18.238;2022-10-31T01:25:47;98.93;;;27.13;;
75943;SDS011;64627;46.076;18.238;2022-10-31T01:28:31;137.40;;;28.35;;
75943;SDS011;64627;46.076;18.238;2022-10-31T01:31:15;167.27;;;28.87;;
75943;SDS011;64627;46.076;18.238;2022-10-31T01:34:00;107.68;;;27.23;;
75943;SDS011;64627;46.076;18.238;2022-10-31T01:36:45;120.43;;;27.87;;
75943;SDS011;64627;46.076;18.238;2022-10-31T01:39:30;126.28;;;27.90;;
75943;SDS011;64627;46.076;18.238;2022-10-31T01:42:15;126.03;;;26.92;;
75943;SDS011;64627;46.076;18.238;2022-10-31T01:45:04;116.47;;;26.33;;
75943;SDS011;64627;46.076;18.238;2022-10-31T01:47:49;153.87;;;27.75;;
75943;SDS011;64627;46.076;18.238;2022-10-31T01:50:34;129.38;;;25.83;;
75943;SDS011;64627;46.076;18.238;2022-10-31T01:53:20;78.90;;;23.80;;
75943;SDS011;64627;46.076;18.238;2022-10-31T01:56:05;53.58;;;22.98;;
75943;SDS011;64627;46.076;18.238;2022-10-31T01:58:49;82.65;;;22.52;;
75943;SDS011;64627;46.076;18.238;2022-10-31T02:01:34;93.28;;;23.87;;
75943;SDS011;64627;46.076;18.238;2022-10-31T02:04:19;111.50;;;25.25;;
75943;SDS011;64627;46.076;18.238;2022-10-31T02:07:08;99.20;;;23.62;;
75943;SDS011;64627;46.076;18.238;2022-10-31T02:09:57;88.80;;;24.37;;
75943;SDS011;64627;46.076;18.238;2022-10-31T02:12:41;60.63;;;23.12;;
75943;SDS011;64627;46.076;18.238;2022-10-31T02:15:25;70.43;;;20.50;;
75943;SDS011;64627;46.076;18.238;2022-10-31T02:18:10;89.05;;;21.23;;
75943;SDS011;64627;46.076;18.238;2022-10-31T02:39:10;83.32;;;23.92;;
75943;SDS011;64627;46.076;18.238;2022-10-31T02:42:17;77.00;;;23.83;;
75943;SDS011;64627;46.076;18.238;2022-10-31T02:47:58;67.32;;;21.17;;
75943;SDS011;64627;46.076;18.238;2022-10-31T02:50:55;120.15;;;24.27;;
75943;SDS011;64627;46.076;18.238;2022-10-31T02:53:41;89.30;;;20.80;;
75943;SDS011;64627;46.076;18.238;2022-10-31T02:56:26;69.68;;;21.12;;
75943;SDS011;64627;46.076;18.238;2022-10-31T02:59:10;68.60;;;21.98;;
75943;SDS011;64627;46.076;18.238;2022-10-31T03:01:56;93.72;;;21.98;;
75943;SDS011;64627;46.076;18.238;2022-10-31T03:08:06;77.03;;;21.48;;
75943;SDS011;64627;46.076;18.238;2022-10-31T03:10:59;94.00;;;22.17;;
75943;SDS011;64627;46.076;18.238;2022-10-31T03:19:34;78.70;;;19.90;;
75943;SDS011;64627;46.076;18.238;2022-10-31T03:22:23;63.40;;;20.65;;
75943;SDS011;64627;46.076;18.238;2022-10-31T03:25:09;70.28;;;19.85;;
75943;SDS011;64627;46.076;18.238;2022-10-31T03:27:54;60.17;;;19.42;;
75943;SDS011;64627;46.076;18.238;2022-10-31T03:30:39;68.05;;;21.75;;
75943;SDS011;64627;46.076;18.238;2022-10-31T03:33:26;79.30;;;20.25;;
75943;SDS011;64627;46.076;18.238;2022-10-31T03:36:13;81.70;;;19.45;;
75943;SDS011;64627;46.076;18.238;2022-10-31T03:38:58;83.00;;;21.37;;
75943;SDS011;64627;46.076;18.238;2022-10-31T03:41:47;67.72;;;19.45;;
75943;SDS011;64627;46.076;18.238;2022-10-31T03:44:34;110.05;;;19.20;;
75943;SDS011;64627;46.076;18.238;2022-10-31T03:47:19;130.48;;;20.58;;
75943;SDS011;64627;46.076;18.238;2022-10-31T03:50:03;53.28;;;18.92;;
75943;SDS011;64627;46.076;18.238;2022-10-31T03:53:25;64.93;;;22.48;;
75943;SDS011;64627;46.076;18.238;2022-10-31T03:56:10;66.07;;;20.70;;
75943;SDS011;64627;46.076;18.238;2022-10-31T04:01:44;88.12;;;20.10;;
75943;SDS011;64627;46.076;18.238;2022-10-31T04:04:33;78.05;;;19.87;;
75943;SDS011;64627;46.076;18.238;2022-10-31T04:07:17;69.55;;;19.65;;
75943;SDS011;64627;46.076;18.238;2022-10-31T04:10:02;87.53;;;20.40;;
75943;SDS011;64627;46.076;18.238;2022-10-31T04:12:51;83.30;;;22.50;;
75943;SDS011;64627;46.076;18.238;2022-10-31T04:15:39;63.53;;;21.25;;
75943;SDS011;64627;46.076;18.238;2022-10-31T04:18:25;106.70;;;25.12;;
75943;SDS011;64627;46.076;18.238;2022-10-31T04:21:09;104.18;;;23.17;;
75943;SDS011;64627;46.076;18.238;2022-10-31T04:23:54;61.70;;;21.08;;
75943;SDS011;64627;46.076;18.238;2022-10-31T04:26:39;42.33;;;19.80;;
75943;SDS011;64627;46.076;18.238;2022-10-31T04:29:23;53.97;;;19.58;;
75943;SDS011;64627;46.076;18.238;2022-10-31T04:32:07;53.92;;;18.00;;
75943;SDS011;64627;46.076;18.238;2022-10-31T04:34:51;87.30;;;19.23;;
75943;SDS011;64627;46.076;18.238;2022-10-31T04:37:35;58.25;;;18.35;;
75943;SDS011;64627;46.076;18.238;2022-10-31T04:40:19;47.17;;;17.23;;
75943;SDS011;64627;46.076;18.238;2022-10-31T04:43:03;80.10;;;20.37;;
75943;SDS011;64627;46.076;18.238;2022-10-31T04:45:47;72.50;;;19.30;;
75943;SDS011;64627;46.076;18.238;2022-10-31T04:48:31;83.00;;;19.30;;
75943;SDS011;64627;46.076;18.238;2022-10-31T04:51:15;66.72;;;19.15;;
75943;SDS011;64627;46.076;18.238;2022-10-31T04:53:59;98.80;;;22.55;;
75943;SDS011;64627;46.076;18.238;2022-10-31T04:56:43;110.28;;;21.12;;
75943;SDS011;64627;46.076;18.238;2022-10-31T04:59:27;63.55;;;19.62;;
75943;SDS011;64627;46.076;18.238;2022-10-31T05:02:12;72.85;;;19.48;;
75943;SDS011;64627;46.076;18.238;2022-10-31T05:04:55;94.37;;;20.35;;
75943;SDS011;64627;46.076;18.238;2022-10-31T05:07:40;47.88;;;18.27;;
75943;SDS011;64627;46.076;18.238;2022-10-31T05:10:26;73.10;;;18.73;;
75943;SDS011;64627;46.076;18.238;2022-10-31T05:13:12;76.50;;;19.15;;
75943;SDS011;64627;46.076;18.238;2022-10-31T05:15:56;89.30;;;20.83;;
75943;SDS011;64627;46.076;18.238;2022-10-31T05:18:40;70.37;;;19.42;;
75943;SDS011;64627;46.076;18.238;2022-10-31T05:21:24;94.55;;;19.65;;
75943;SDS011;64627;46.076;18.238;2022-10-31T05:24:08;76.15;;;18.40;;
75943;SDS011;64627;46.076;18.238;2022-10-31T05:26:52;71.60;;;18.27;;
75943;SDS011;64627;46.076;18.238;2022-10-31T05:29:36;133.27;;;19.90;;
75943;SDS011;64627;46.076;18.238;2022-10-31T05:32:20;68.90;;;18.52;;
75943;SDS011;64627;46.076;18.238;2022-10-31T05:35:05;64.25;;;18.00;;
75943;SDS011;64627;46.076;18.238;2022-10-31T05:37:51;74.53;;;18.55;;
75943;SDS011;64627;46.076;18.238;2022-10-31T05:40:36;71.87;;;17.65;;
75943;SDS011;64627;46.076;18.238;2022-10-31T05:43:20;72.90;;;19.52;;
75943;SDS011;64627;46.076;18.238;2022-10-31T05:46:04;70.30;;;18.48;;
75943;SDS011;64627;46.076;18.238;2022-10-31T05:48:48;65.72;;;17.67;;
75943;SDS011;64627;46.076;18.238;2022-10-31T05:51:32;108.43;;;18.50;;
75943;SDS011;64627;46.076;18.238;2022-10-31T05:54:16;63.00;;;18.83;;
75943;SDS011;64627;46.076;18.238;2022-10-31T05:57:01;51.83;;;18.77;;
75943;SDS011;64627;46.076;18.238;2022-10-31T05:59:46;68.57;;;17.98;;
75943;SDS011;64627;46.076;18.238;2022-10-31T06:02:31;67.62;;;18.48;;
75943;SDS011;64627;46.076;18.238;2022-10-31T06:05:18;50.58;;;20.37;;
75943;SDS011;64627;46.076;18.238;2022-10-31T06:08:02;57.22;;;17.25;;
75943;SDS011;64627;46.076;18.238;2022-10-31T06:10:46;54.20;;;19.58;;
75943;SDS011;64627;46.076;18.238;2022-10-31T06:13:30;65.57;;;18.48;;
75943;SDS011;64627;46.076;18.238;2022-10-31T06:16:14;59.30;;;18.10;;
75943;SDS011;64627;46.076;18.238;2022-10-31T06:18:58;48.67;;;18.83;;
75943;SDS011;64627;46.076;18.238;2022-10-31T06:21:43;55.72;;;19.92;;
75943;SDS011;64627;46.076;18.238;2022-10-31T06:24:27;66.82;;;17.40;;
75943;SDS011;64627;46.076;18.238;2022-10-31T06:27:11;84.35;;;20.02;;
75943;SDS011;64627;46.076;18.238;2022-10-31T06:29:55;76.75;;;19.05;;
75943;SDS011;64627;46.076;18.238;2022-10-31T06:32:39;59.28;;;17.85;;
75943;SDS011;64627;46.076;18.238;2022-10-31T06:35:23;90.72;;;18.65;;
75943;SDS011;64627;46.076;18.238;2022-10-31T06:38:07;61.28;;;19.30;;
75943;SDS011;64627;46.076;18.238;2022-10-31T06:40:51;87.03;;;19.62;;
75943;SDS011;64627;46.076;18.238;2022-10-31T06:43:35;73.15;;;18.60;;
75943;SDS011;64627;46.076;18.238;2022-10-31T06:46:19;118.68;;;20.92;;
75943;SDS011;64627;46.076;18.238;2022-10-31T06:49:04;108.00;;;19.40;;
75943;SDS011;64627;46.076;18.238;2022-10-31T06:51:48;89.05;;;20.30;;
75943;SDS011;64627;46.076;18.238;2022-10-31T06:54:33;102.05;;;18.80;;
75943;SDS011;64627;46.076;18.238;2022-10-31T06:57:17;100.47;;;18.12;;
75943;SDS011;64627;46.076;18.238;2022-10-31T07:00:01;81.45;;;19.23;;
75943;SDS011;64627;46.076;18.238;2022-10-31T07:03:04;76.80;;;18.95;;
75943;SDS011;64627;46.076;18.238;2022-10-31T07:05:50;75.80;;;20.88;;
75943;SDS011;64627;46.076;18.238;2022-10-31T07:08:34;86.57;;;19.37;;
75943;SDS011;64627;46.076;18.238;2022-10-31T07:11:18;98.25;;;22.30;;
75943;SDS011;64627;46.076;18.238;2022-10-31T07:14:03;91.22;;;21.48;;
75943;SDS011;64627;46.076;18.238;2022-10-31T07:16:49;74.90;;;21.45;;
75943;SDS011;64627;46.076;18.238;2022-10-31T07:19:34;75.72;;;22.10;;
75943;SDS011;64627;46.076;18.238;2022-10-31T07:22:19;64.75;;;21.35;;
75943;SDS011;64627;46.076;18.238;2022-10-31T07:25:03;74.85;;;20.60;;
75943;SDS011;64627;46.076;18.238;2022-10-31T07:27:48;95.62;;;22.17;;
75943;SDS011;64627;46.076;18.238;2022-10-31T07:30:32;56.92;;;21.87;;
75943;SDS011;64627;46.076;18.238;2022-10-31T07:33:17;62.97;;;18.95;;
75943;SDS011;64627;46.076;18.238;2022-10-31T07:36:01;50.05;;;20.17;;
75943;SDS011;64627;46.076;18.238;2022-10-31T07:38:45;40.10;;;17.62;;
75943;SDS011;64627;46.076;18.238;2022-10-31T07:41:29;45.28;;;18.35;;
75943;SDS011;64627;46.076;18.238;2022-10-31T07:44:13;43.47;;;17.90;;
75943;SDS011;64627;46.076;18.238;2022-10-31T07:46:58;44.55;;;19.45;;
75943;SDS011;64627;46.076;18.238;2022-10-31T07:49:42;45.10;;;28.02;;
75943;SDS011;64627;46.076;18.238;2022-10-31T07:52:28;51.97;;;17.77;;
75943;SDS011;64627;46.076;18.238;2022-10-31T07:55:12;33.58;;;18.02;;
75943;SDS011;64627;46.076;18.238;2022-10-31T08:00:42;38.47;;;17.92;;
75943;SDS011;64627;46.076;18.238;2022-10-31T08:03:27;39.90;;;18.08;;
75943;SDS011;64627;46.076;18.238;2022-10-31T08:06:13;50.72;;;21.42;;
75943;SDS011;64627;46.076;18.238;2022-10-31T08:08:58;42.67;;;20.15;;
75943;SDS011;64627;46.076;18.238;2022-10-31T08:11:42;39.95;;;18.65;;
75943;SDS011;64627;46.076;18.238;2022-10-31T08:14:28;41.22;;;18.10;;
75943;SDS011;64627;46.076;18.238;2022-10-31T08:17:12;44.75;;;20.58;;
75943;SDS011;64627;46.076;18.238;2022-10-31T08:19:58;34.03;;;16.62;;
75943;SDS011;64627;46.076;18.238;2022-10-31T08:22:42;40.15;;;21.52;;
75943;SDS011;64627;46.076;18.238;2022-10-31T08:25:28;34.75;;;17.50;;
75943;SDS011;64627;46.076;18.238;2022-10-31T08:28:13;41.45;;;19.02;;
75943;SDS011;64627;46.076;18.238;2022-10-31T08:30:58;32.25;;;17.62;;
75943;SDS011;64627;46.076;18.238;2022-10-31T08:33:48;36.60;;;18.42;;
75943;SDS011;64627;46.076;18.238;2022-10-31T08:36:36;31.30;;;16.85;;
75943;SDS011;64627;46.076;18.238;2022-10-31T08:39:20;32.85;;;16.90;;
75943;SDS011;64627;46.076;18.238;2022-10-31T08:42:05;37.08;;;17.83;;
75943;SDS011;64627;46.076;18.238;2022-10-31T08:44:50;36.10;;;18.62;;
75943;SDS011;64627;46.076;18.238;2022-10-31T08:47:34;35.13;;;19.90;;
75943;SDS011;64627;46.076;18.238;2022-10-31T08:50:18;27.48;;;16.00;;
75943;SDS011;64627;46.076;18.238;2022-10-31T08:53:03;31.58;;;16.87;;
75943;SDS011;64627;46.076;18.238;2022-10-31T08:55:49;33.17;;;16.58;;
75943;SDS011;64627;46.076;18.238;2022-10-31T08:58:34;24.35;;;15.18;;
75943;SDS011;64627;46.076;18.238;2022-10-31T09:01:18;26.83;;;15.80;;
75943;SDS011;64627;46.076;18.238;2022-10-31T09:04:03;30.90;;;16.40;;
75943;SDS011;64627;46.076;18.238;2022-10-31T09:06:47;34.88;;;16.85;;
75943;SDS011;64627;46.076;18.238;2022-10-31T09:09:34;35.60;;;15.98;;
75943;SDS011;64627;46.076;18.238;2022-10-31T09:12:18;33.28;;;16.62;;
75943;SDS011;64627;46.076;18.238;2022-10-31T09:15:02;47.05;;;18.48;;
75943;SDS011;64627;46.076;18.238;2022-10-31T09:17:48;45.28;;;18.48;;
75943;SDS011;64627;46.076;18.238;2022-10-31T09:20:33;38.50;;;17.52;;
75943;SDS011;64627;46.076;18.238;2022-10-31T09:23:19;51.85;;;20.37;;
75943;SDS011;64627;46.076;18.238;2022-10-31T09:26:06;41.97;;;19.10;;
75943;SDS011;64627;46.076;18.238;2022-10-31T09:28:50;41.42;;;18.48;;
75943;SDS011;64627;46.076;18.238;2022-10-31T09:31:35;39.22;;;18.90;;
75943;SDS011;64627;46.076;18.238;2022-10-31T09:34:19;51.60;;;20.80;;
75943;SDS011;64627;46.076;18.238;2022-10-31T09:37:03;51.97;;;22.77;;
75943;SDS011;64627;46.076;18.238;2022-10-31T09:39:48;73.12;;;25.90;;
75943;SDS011;64627;46.076;18.238;2022-10-31T09:48:24;64.07;;;25.08;;
75943;SDS011;64627;46.076;18.238;2022-10-31T09:54:05;59.67;;;24.48;;
75943;SDS011;64627;46.076;18.238;2022-10-31T09:57:13;57.15;;;24.48;;
75943;SDS011;64627;46.076;18.238;2022-10-31T09:59:59;60.42;;;24.55;;
75943;SDS011;64627;46.076;18.238;2022-10-31T10:02:51;74.28;;;28.00;;
75943;SDS011;64627;46.076;18.238;2022-10-31T10:05:51;70.03;;;26.75;;
75943;SDS011;64627;46.076;18.238;2022-10-31T10:08:38;64.53;;;26.70;;
75943;SDS011;64627;46.076;18.238;2022-10-31T10:18:27;57.08;;;22.33;;
75943;SDS011;64627;46.076;18.238;2022-10-31T10:21:17;53.87;;;23.15;;
75943;SDS011;64627;46.076;18.238;2022-10-31T10:33:43;53.47;;;24.80;;
75943;SDS011;64627;46.076;18.238;2022-10-31T10:36:37;65.57;;;25.88;;
75943;SDS011;64627;46.076;18.238;2022-10-31T10:39:29;57.33;;;24.92;;
75943;SDS011;64627;46.076;18.238;2022-10-31T10:42:16;58.60;;;25.42;;
75943;SDS011;64627;46.076;18.238;2022-10-31T10:57:58;40.60;;;20.30;;
75943;SDS011;64627;46.076;18.238;2022-10-31T11:00:45;40.70;;;19.70;;
75943;SDS011;64627;46.076;18.238;2022-10-31T11:03:34;45.20;;;22.37;;
75943;SDS011;64627;46.076;18.238;2022-10-31T11:06:21;40.45;;;21.33;;
75943;SDS011;64627;46.076;18.238;2022-10-31T11:09:09;52.67;;;25.65;;
75943;SDS011;64627;46.076;18.238;2022-10-31T11:11:54;44.05;;;21.98;;
75943;SDS011;64627;46.076;18.238;2022-10-31T11:14:44;39.65;;;19.92;;
75943;SDS011;64627;46.076;18.238;2022-10-31T11:17:37;42.10;;;21.35;;
75943;SDS011;64627;46.076;18.238;2022-10-31T11:20:34;35.90;;;19.48;;
75943;SDS011;64627;46.076;18.238;2022-10-31T11:23:20;33.92;;;18.37;;
75943;SDS011;64627;46.076;18.238;2022-10-31T11:26:06;33.50;;;17.83;;
75943;SDS011;64627;46.076;18.238;2022-10-31T11:29:12;33.85;;;18.60;;
75943;SDS011;64627;46.076;18.238;2022-10-31T11:32:03;35.63;;;19.10;;
75943;SDS011;64627;46.076;18.238;2022-10-31T11:34:49;34.38;;;19.40;;
75943;SDS011;64627;46.076;18.238;2022-10-31T11:37:40;30.90;;;18.62;;
75943;SDS011;64627;46.076;18.238;2022-10-31T11:40:26;31.33;;;18.40;;
75943;SDS011;64627;46.076;18.238;2022-10-31T11:43:15;30.88;;;17.55;;
75943;SDS011;64627;46.076;18.238;2022-10-31T11:46:12;31.77;;;17.95;;
75943;SDS011;64627;46.076;18.238;2022-10-31T11:49:03;36.30;;;19.05;;
75943;SDS011;64627;46.076;18.238;2022-10-31T11:51:49;33.80;;;18.40;;
75943;SDS011;64627;46.076;18.238;2022-10-31T11:54:42;30.95;;;17.30;;
75943;SDS011;64627;46.076;18.238;2022-10-31T11:57:43;25.50;;;15.93;;
75943;SDS011;64627;46.076;18.238;2022-10-31T12:00:33;30.35;;;17.50;;
75943;SDS011;64627;46.076;18.238;2022-10-31T12:06:13;21.50;;;13.77;;
75943;SDS011;64627;46.076;18.238;2022-10-31T12:09:18;22.67;;;14.80;;
75943;SDS011;64627;46.076;18.238;2022-10-31T12:15:12;25.48;;;14.48;;
75943;SDS011;64627;46.076;18.238;2022-10-31T12:18:28;21.48;;;13.95;;
75943;SDS011;64627;46.076;18.238;2022-10-31T12:21:26;22.90;;;14.80;;
75943;SDS011;64627;46.076;18.238;2022-10-31T12:27:55;26.52;;;15.48;;
75943;SDS011;64627;46.076;18.238;2022-10-31T12:33:57;20.67;;;14.43;;
75943;SDS011;64627;46.076;18.238;2022-10-31T12:43:20;21.95;;;15.02;;
75943;SDS011;64627;46.076;18.238;2022-10-31T12:46:24;21.83;;;12.85;;
75943;SDS011;64627;46.076;18.238;2022-10-31T12:52:33;20.75;;;14.27;;
75943;SDS011;64627;46.076;18.238;2022-10-31T13:01:55;20.17;;;13.70;;
75943;SDS011;64627;46.076;18.238;2022-10-31T13:04:53;22.02;;;14.13;;
75943;SDS011;64627;46.076;18.238;2022-10-31T13:07:48;21.00;;;13.65;;
75943;SDS011;64627;46.076;18.238;2022-10-31T13:13:27;23.50;;;13.93;;
75943;SDS011;64627;46.076;18.238;2022-10-31T13:16:40;22.48;;;14.20;;
75943;SDS011;64627;46.076;18.238;2022-10-31T13:19:44;24.45;;;13.57;;
75943;SDS011;64627;46.076;18.238;2022-10-31T13:22:30;22.47;;;14.27;;
75943;SDS011;64627;46.076;18.238;2022-10-31T13:25:17;21.95;;;13.90;;
75943;SDS011;64627;46.076;18.238;2022-10-31T13:31:17;21.73;;;14.48;;
75943;SDS011;64627;46.076;18.238;2022-10-31T13:34:03;26.60;;;19.75;;
75943;SDS011;64627;46.076;18.238;2022-10-31T13:37:13;25.85;;;15.02;;
75943;SDS011;64627;46.076;18.238;2022-10-31T13:45:52;24.48;;;14.90;;
75943;SDS011;64627;46.076;18.238;2022-10-31T13:48:38;22.20;;;15.25;;
75943;SDS011;64627;46.076;18.238;2022-10-31T13:51:27;21.20;;;14.82;;
75943;SDS011;64627;46.076;18.238;2022-10-31T13:54:20;27.33;;;15.18;;
75943;SDS011;64627;46.076;18.238;2022-10-31T13:57:30;22.77;;;15.30;;
75943;SDS011;64627;46.076;18.238;2022-10-31T14:03:05;23.98;;;13.30;;
75943;SDS011;64627;46.076;18.238;2022-10-31T14:05:53;20.75;;;14.50;;
75943;SDS011;64627;46.076;18.238;2022-10-31T14:08:39;24.12;;;15.02;;
75943;SDS011;64627;46.076;18.238;2022-10-31T14:11:28;23.42;;;13.77;;
75943;SDS011;64627;46.076;18.238;2022-10-31T14:14:13;24.70;;;15.02;;
75943;SDS011;64627;46.076;18.238;2022-10-31T14:16:58;26.23;;;16.65;;
75943;SDS011;64627;46.076;18.238;2022-10-31T14:19:43;25.05;;;16.10;;
75943;SDS011;64627;46.076;18.238;2022-10-31T14:22:31;22.27;;;15.40;;
75943;SDS011;64627;46.076;18.238;2022-10-31T14:28:30;25.83;;;15.75;;
75943;SDS011;64627;46.076;18.238;2022-10-31T14:46:38;26.27;;;16.80;;
75943;SDS011;64627;46.076;18.238;2022-10-31T14:52:28;24.95;;;14.98;;
75943;SDS011;64627;46.076;18.238;2022-10-31T14:55:12;23.70;;;15.77;;
75943;SDS011;64627;46.076;18.238;2022-10-31T14:57:59;24.60;;;15.68;;
75943;SDS011;64627;46.076;18.238;2022-10-31T15:00:45;25.77;;;15.88;;
75943;SDS011;64627;46.076;18.238;2022-10-31T15:06:14;25.85;;;16.98;;
75943;SDS011;64627;46.076;18.238;2022-10-31T15:09:00;28.10;;;16.70;;
75943;SDS011;64627;46.076;18.238;2022-10-31T15:11:44;27.27;;;17.87;;
75943;SDS011;64627;46.076;18.238;2022-10-31T15:14:30;25.60;;;16.40;;
75943;SDS011;64627;46.076;18.238;2022-10-31T15:17:15;25.98;;;16.27;;
75943;SDS011;64627;46.076;18.238;2022-10-31T15:20:00;30.70;;;16.65;;
75943;SDS011;64627;46.076;18.238;2022-10-31T15:22:46;31.20;;;18.77;;
75943;SDS011;64627;46.076;18.238;2022-10-31T15:25:33;32.55;;;19.12;;
75943;SDS011;64627;46.076;18.238;2022-10-31T15:28:22;32.15;;;18.52;;
75943;SDS011;64627;46.076;18.238;2022-10-31T15:31:13;36.70;;;19.98;;
75943;SDS011;64627;46.076;18.238;2022-10-31T15:34:02;36.90;;;21.17;;
75943;SDS011;64627;46.076;18.238;2022-10-31T15:36:55;41.40;;;23.23;;
75943;SDS011;64627;46.076;18.238;2022-10-31T15:39:44;44.97;;;24.17;;
75943;SDS011;64627;46.076;18.238;2022-10-31T15:42:30;43.75;;;23.83;;
75943;SDS011;64627;46.076;18.238;2022-10-31T15:45:18;48.58;;;26.23;;
75943;SDS011;64627;46.076;18.238;2022-10-31T15:48:17;44.25;;;22.75;;
75943;SDS011;64627;46.076;18.238;2022-10-31T15:51:03;45.88;;;24.75;;
75943;SDS011;64627;46.076;18.238;2022-10-31T15:53:49;43.13;;;23.10;;
75943;SDS011;64627;46.076;18.238;2022-10-31T15:56:35;49.05;;;25.00;;
75943;SDS011;64627;46.076;18.238;2022-10-31T15:59:21;44.45;;;24.40;;
75943;SDS011;64627;46.076;18.238;2022-10-31T16:02:10;42.10;;;23.95;;
75943;SDS011;64627;46.076;18.238;2022-10-31T16:04:59;43.55;;;24.73;;
75943;SDS011;64627;46.076;18.238;2022-10-31T16:07:51;47.67;;;24.17;;
75943;SDS011;64627;46.076;18.238;2022-10-31T16:10:36;45.72;;;24.67;;
75943;SDS011;64627;46.076;18.238;2022-10-31T16:13:32;44.47;;;24.90;;
75943;SDS011;64627;46.076;18.238;2022-10-31T16:16:17;42.47;;;22.55;;
75943;SDS011;64627;46.076;18.238;2022-10-31T16:19:04;46.97;;;22.75;;
75943;SDS011;64627;46.076;18.238;2022-10-31T16:21:51;46.13;;;24.10;;
75943;SDS011;64627;46.076;18.238;2022-10-31T16:24:46;46.95;;;24.63;;
75943;SDS011;64627;46.076;18.238;2022-10-31T16:27:33;43.87;;;22.73;;
75943;SDS011;64627;46.076;18.238;2022-10-31T16:33:27;48.28;;;25.17;;
75943;SDS011;64627;46.076;18.238;2022-10-31T16:39:11;51.42;;;24.52;;
75943;SDS011;64627;46.076;18.238;2022-10-31T16:41:57;49.15;;;25.70;;
75943;SDS011;64627;46.076;18.238;2022-10-31T16:44:41;49.67;;;25.10;;
75943;SDS011;64627;46.076;18.238;2022-10-31T16:47:29;52.53;;;25.58;;
75943;SDS011;64627;46.076;18.238;2022-10-31T16:50:20;52.60;;;26.05;;
75943;SDS011;64627;46.076;18.238;2022-10-31T16:53:06;49.10;;;24.12;;
75943;SDS011;64627;46.076;18.238;2022-10-31T16:55:52;55.83;;;28.17;;
75943;SDS011;64627;46.076;18.238;2022-10-31T16:58:39;50.63;;;25.83;;
75943;SDS011;64627;46.076;18.238;2022-10-31T17:01:24;55.53;;;26.40;;
75943;SDS011;64627;46.076;18.238;2022-10-31T17:04:11;56.60;;;27.02;;
75943;SDS011;64627;46.076;18.238;2022-10-31T17:06:57;58.40;;;25.37;;
75943;SDS011;64627;46.076;18.238;2022-10-31T17:09:41;54.40;;;24.90;;
75943;SDS011;64627;46.076;18.238;2022-10-31T17:12:29;58.00;;;26.42;;
75943;SDS011;64627;46.076;18.238;2022-10-31T17:15:15;52.45;;;23.92;;
75943;SDS011;64627;46.076;18.238;2022-10-31T17:18:11;50.67;;;25.02;;
75943;SDS011;64627;46.076;18.238;2022-10-31T17:20:56;51.70;;;24.83;;
75943;SDS011;64627;46.076;18.238;2022-10-31T17:23:49;54.92;;;25.40;;
75943;SDS011;64627;46.076;18.238;2022-10-31T17:26:33;57.42;;;25.88;;
75943;SDS011;64627;46.076;18.238;2022-10-31T17:29:17;63.58;;;29.10;;
75943;SDS011;64627;46.076;18.238;2022-10-31T17:32:01;59.30;;;27.87;;
75943;SDS011;64627;46.076;18.238;2022-10-31T17:34:48;55.50;;;25.73;;
75943;SDS011;64627;46.076;18.238;2022-10-31T17:37:32;65.72;;;28.45;;
75943;SDS011;64627;46.076;18.238;2022-10-31T17:40:17;75.47;;;25.10;;
75943;SDS011;64627;46.076;18.238;2022-10-31T17:43:04;64.80;;;26.95;;
75943;SDS011;64627;46.076;18.238;2022-10-31T17:45:48;71.10;;;28.00;;
75943;SDS011;64627;46.076;18.238;2022-10-31T17:48:35;72.93;;;28.67;;
75943;SDS011;64627;46.076;18.238;2022-10-31T17:51:20;80.25;;;30.00;;
75943;SDS011;64627;46.076;18.238;2022-10-31T17:54:04;68.95;;;26.65;;
75943;SDS011;64627;46.076;18.238;2022-10-31T17:56:52;69.15;;;25.75;;
75943;SDS011;64627;46.076;18.238;2022-10-31T17:59:36;63.85;;;23.92;;
75943;SDS011;64627;46.076;18.238;2022-10-31T18:02:20;73.12;;;26.20;;
75943;SDS011;64627;46.076;18.238;2022-10-31T18:05:08;82.32;;;25.85;;
75943;SDS011;64627;46.076;18.238;2022-10-31T18:07:52;75.30;;;26.05;;
75943;SDS011;64627;46.076;18.238;2022-10-31T18:10:37;58.20;;;26.23;;
75943;SDS011;64627;46.076;18.238;2022-10-31T18:13:22;63.72;;;26.45;;
75943;SDS011;64627;46.076;18.238;2022-10-31T18:16:12;65.75;;;26.73;;
75943;SDS011;64627;46.076;18.238;2022-10-31T18:18:59;74.95;;;26.37;;
75943;SDS011;64627;46.076;18.238;2022-10-31T18:21:44;77.90;;;27.70;;
75943;SDS011;64627;46.076;18.238;2022-10-31T18:24:30;66.87;;;27.55;;
75943;SDS011;64627;46.076;18.238;2022-10-31T18:27:13;73.85;;;27.55;;